Terminal Aerodrome Forecast
Issued by NWS Austin/San Antonio, TX

Home | Current Version | Previous Version | Text Only | Print | Product List | Glossary On
Versions: 1 2 3 4 5 6 7 8 9 10 11 12 13 14 15 16 17 18 19
578
FTUS44 KEWX 030526
TAFDRT
TAF
KDRT 030526Z 0306/0406 08004KT P6SM FEW080
     FM031600 13007KT P6SM SCT250
     FM040200 11006KT P6SM SCT250=

USA.gov is the U.S. government's official web portal to all federal, state and local government web resources and services.